Time;durP1;ratioP1;P1;durP2;ratioP2;P2;SDS_P1;SDS_P2;PMS_P1;PMS_P2;Temp;Humidity;BMP_temperature;BMP_pressure;BME280_temperature;BME280_humidity;BME280_pressure;Samples;Min_cycle;Max_cycle;Signal;HPM_P1;HPM_P2
2023/10/16 00:01:05;;;;;;;4.82;1.95;;;;;4.90;99184.00;;;;5035778;28;20049;-66
2023/10/16 00:03:33;;;;;;;2.85;1.88;;;;;4.80;99184.00;;;;5035787;28;20045;-66
2023/10/16 00:06:05;;;;;;;3.38;2.00;;;;;4.80;99192.00;;;;5036278;28;20068;-66
2023/10/16 00:08:34;;;;;;;2.13;1.60;;;;;4.90;99189.00;;;;5035067;28;20053;-66
2023/10/16 00:11:03;;;;;;;2.97;2.13;;;;;4.90;99182.00;;;;5036776;28;20459;-64
2023/10/16 00:13:31;;;;;;;3.17;1.50;;;;;4.80;99181.00;;;;5035526;28;20056;-64
2023/10/16 00:15:59;;;;;;;2.75;1.90;;;;;4.80;99187.00;;;;5035593;28;20133;-65
2023/10/16 00:18:35;;;;;;;3.67;1.80;;;;;4.70;99188.00;;;;5035212;28;20045;-65
2023/10/16 00:21:06;;;;;;;4.95;1.88;;;;;4.60;99187.00;;;;5035600;28;20456;-65
2023/10/16 00:23:40;;;;;;;2.85;2.25;;;;;4.70;99182.00;;;;5034779;28;20041;-65
2023/10/16 00:26:10;;;;;;;2.97;1.67;;;;;4.70;99185.00;;;;5035278;28;20053;-65
2023/10/16 00:28:44;;;;;;;4.55;1.95;;;;;4.80;99190.00;;;;5033928;28;20047;-65
2023/10/16 00:31:20;;;;;;;7.75;2.10;;;;;4.80;99185.00;;;;5033937;28;20140;-65
2023/10/16 00:33:49;;;;;;;3.03;1.67;;;;;4.80;99191.00;;;;5033375;28;20052;-65
2023/10/16 00:36:16;;;;;;;3.88;1.80;;;;;4.80;99183.00;;;;5034022;28;20483;-66
2023/10/16 00:38:48;;;;;;;2.03;1.70;;;;;4.70;99182.00;;;;5033583;28;20050;-66
2023/10/16 00:43:43;;;;;;;3.85;2.00;;;;;4.50;99162.00;;;;5034315;28;20045;-65
2023/10/16 00:46:18;;;;;;;2.08;1.70;;;;;4.40;99162.00;;;;5033743;28;20084;-65
2023/10/16 00:48:46;;;;;;;3.30;1.85;;;;;4.30;99171.00;;;;5036033;28;20529;-65
2023/10/16 00:51:16;;;;;;;3.33;1.60;;;;;4.40;99161.00;;;;5033667;28;20072;-66
2023/10/16 00:54:01;;;;;;;2.58;1.98;;;;;4.40;99149.00;;;;5034385;28;20045;-65
2023/10/16 00:56:28;;;;;;;3.00;1.70;;;;;4.30;99150.00;;;;5035021;28;20065;-66
2023/10/16 00:58:56;;;;;;;4.47;1.90;;;;;4.20;99149.00;;;;5032670;28;20055;-66
2023/10/16 01:01:25;;;;;;;3.53;2.00;;;;;4.20;99146.00;;;;5033401;28;20128;-65
2023/10/16 01:03:57;;;;;;;3.75;1.70;;;;;4.30;99145.00;;;;5032886;28;20050;-65
2023/10/16 01:06:36;;;;;;;2.53;1.60;;;;;4.30;99148.00;;;;5034481;28;20042;-65
2023/10/16 01:09:12;;;;;;;2.70;1.88;;;;;4.30;99155.00;;;;5034546;28;20049;-65
2023/10/16 01:11:39;;;;;;;2.88;2.10;;;;;4.30;99144.00;;;;5034477;28;20103;-65
2023/10/16 01:14:06;;;;;;;3.35;1.55;;;;;4.30;99158.00;;;;5033782;28;20065;-65
2023/10/16 01:16:33;;;;;;;2.70;1.60;;;;;4.30;99150.00;;;;5034350;28;20140;-64
2023/10/16 01:19:03;;;;;;;2.28;1.73;;;;;4.30;99155.00;;;;5034181;28;20095;-65
2023/10/16 01:21:33;;;;;;;2.50;1.95;;;;;4.40;99148.00;;;;5033095;28;20041;-65
2023/10/16 01:24:12;;;;;;;3.55;1.90;;;;;4.20;99140.00;;;;5036926;28;20136;-65
2023/10/16 01:26:42;;;;;;;3.83;1.80;;;;;4.10;99138.00;;;;5039185;28;20053;-65
2023/10/16 01:29:10;;;;;;;2.90;1.70;;;;;3.90;99134.00;;;;5038617;28;20055;-65
2023/10/16 01:31:37;;;;;;;4.78;1.60;;;;;3.80;99136.00;;;;5016776;28;20144;-65
2023/10/16 01:34:10;;;;;;;2.25;1.95;;;;;3.70;99131.00;;;;5033726;28;20148;-65
2023/10/16 01:36:38;;;;;;;2.63;1.53;;;;;3.80;99139.00;;;;5034236;28;20406;-65
2023/10/16 01:39:35;;;;;;;3.60;1.73;;;;;3.90;99134.00;;;;5016280;28;20451;-63
2023/10/16 01:41:52;;;;;;;2.80;1.73;;;;;4.00;99141.00;;;;5032209;28;20050;-64
2023/10/16 01:44:19;;;;;;;1.60;1.42;;;;;4.20;99129.00;;;;5033331;28;20136;-66
2023/10/16 01:46:47;;;;;;;2.63;1.65;;;;;4.20;99132.00;;;;5032645;28;20051;-66
2023/10/16 01:49:15;;;;;;;6.82;2.03;;;;;4.20;99137.00;;;;5032680;28;20168;-66
2023/10/16 01:51:44;;;;;;;2.30;1.40;;;;;4.10;99130.00;;;;5032886;28;20046;-65
2023/10/16 01:54:13;;;;;;;4.65;1.70;;;;;4.20;99141.00;;;;5033693;28;20049;-64
2023/10/16 01:56:41;;;;;;;3.08;1.42;;;;;4.20;99144.00;;;;5032325;28;20060;-66
2023/10/16 01:59:08;;;;;;;1.60;1.23;;;;;4.20;99132.00;;;;5032487;28;20048;-66
2023/10/16 02:01:34;;;;;;;1.75;1.65;;;;;4.10;99134.00;;;;5015897;28;20092;-63
2023/10/16 02:04:03;;;;;;;2.90;1.63;;;;;4.10;99124.00;;;;5031664;28;20041;-64
2023/10/16 02:06:31;;;;;;;1.80;1.48;;;;;4.00;99124.00;;;;5033606;28;20041;-64
2023/10/16 02:08:59;;;;;;;2.78;1.98;;;;;3.90;99118.00;;;;5031915;28;20079;-65
2023/10/16 02:11:26;;;;;;;3.80;1.63;;;;;3.90;99115.00;;;;5032456;28;20095;-65
2023/10/16 02:13:55;;;;;;;2.95;1.80;;;;;3.90;99113.00;;;;5031537;28;20049;-65
2023/10/16 02:16:25;;;;;;;5.22;1.75;;;;;3.90;99113.00;;;;5031963;28;20149;-65
2023/10/16 02:18:55;;;;;;;2.85;1.95;;;;;4.00;99115.00;;;;5033193;28;20133;-64
2023/10/16 02:21:22;;;;;;;3.03;1.52;;;;;4.10;99114.00;;;;5032416;28;20053;-66
2023/10/16 02:23:49;;;;;;;2.10;1.80;;;;;4.20;99118.00;;;;5031503;28;20073;-64
2023/10/16 02:26:19;;;;;;;3.05;1.65;;;;;4.20;99105.00;;;;5032955;28;20140;-65
2023/10/16 02:28:46;;;;;;;1.55;1.35;;;;;4.20;99109.00;;;;5032991;28;20053;-65
2023/10/16 02:31:16;;;;;;;2.00;1.65;;;;;4.00;99096.00;;;;5032941;28;20041;-65
2023/10/16 02:33:46;;;;;;;3.15;1.98;;;;;4.00;99095.00;;;;5032459;28;20159;-64
2023/10/16 02:36:14;;;;;;;2.33;1.58;;;;;3.90;99107.00;;;;5031597;28;20134;-66
2023/10/16 02:38:41;;;;;;;1.90;1.70;;;;;3.80;99095.00;;;;5033120;28;20470;-65
2023/10/16 02:41:09;;;;;;;2.17;1.60;;;;;3.90;99098.00;;;;5031455;28;20049;-65
2023/10/16 02:43:41;;;;;;;5.05;2.00;;;;;4.00;99100.00;;;;5032139;28;20069;-65
2023/10/16 02:46:12;;;;;;;5.05;2.00;;;;;4.10;99108.00;;;;5031631;28;20410;-65
2023/10/16 02:48:42;;;;;;;2.95;1.75;;;;;4.00;99113.00;;;;5015033;28;20081;-65
2023/10/16 02:51:10;;;;;;;2.42;1.42;;;;;3.90;99105.00;;;;5032946;28;20084;-65
2023/10/16 02:53:41;;;;;;;2.38;1.65;;;;;3.70;99098.00;;;;5030770;28;20588;-65
2023/10/16 02:56:10;;;;;;;4.82;1.98;;;;;3.50;99086.00;;;;5031428;28;20050;-65
2023/10/16 02:58:42;;;;;;;2.50;1.75;;;;;3.40;99093.00;;;;5032534;28;20049;-65
2023/10/16 03:01:15;;;;;;;4.22;1.88;;;;;3.40;99092.00;;;;5032266;28;20042;-65
2023/10/16 03:03:43;;;;;;;2.42;1.58;;;;;3.40;99094.00;;;;5031792;28;20045;-64
2023/10/16 03:06:10;;;;;;;1.45;1.30;;;;;3.40;99087.00;;;;5014990;28;20096;-65
2023/10/16 03:08:37;;;;;;;4.00;2.00;;;;;3.20;99083.00;;;;5032394;28;20048;-65
2023/10/16 03:11:06;;;;;;;1.90;1.60;;;;;3.10;99088.00;;;;5032333;28;20037;-65
2023/10/16 03:13:37;;;;;;;3.05;1.65;;;;;3.00;99078.00;;;;5031964;28;20418;-65
2023/10/16 03:16:07;;;;;;;2.60;1.90;;;;;3.00;99077.00;;;;5031967;28;20041;-65
2023/10/16 03:18:34;;;;;;;8.05;4.35;;;;;2.90;99073.00;;;;5030800;28;20049;-65
2023/10/16 03:21:26;;;;;;;9.48;5.80;;;;;3.00;99078.00;;;;5032094;28;20041;-65
2023/10/16 03:23:50;;;;;;;2.22;1.63;;;;;3.10;99086.00;;;;5031180;28;20053;-65
2023/10/16 03:28:54;;;;;;;2.80;1.83;;;;;3.30;99097.00;;;;5031921;28;20069;-65
2023/10/16 03:31:21;;;;;;;3.42;1.42;;;;;3.10;99090.00;;;;5032229;28;20103;-65
2023/10/16 03:33:51;;;;;;;2.92;1.83;;;;;3.10;99091.00;;;;5030333;28;20430;-66
2023/10/16 03:36:17;;;;;;;5.50;1.90;;;;;3.10;99094.00;;;;5030597;28;20045;-65
2023/10/16 03:38:45;;;;;;;2.55;2.00;;;;;3.10;99095.00;;;;5032088;28;20436;-65
2023/10/16 03:43:56;;;;;;;4.25;2.58;;;;;3.00;99096.00;;;;5031460;28;20045;-64
2023/10/16 03:46:26;;;;;;;3.50;2.10;;;;;3.00;99088.00;;;;5031983;28;20080;-65
2023/10/16 03:48:54;;;;;;;6.88;2.22;;;;;3.00;99074.00;;;;5031768;28;20239;-65
2023/10/16 03:51:21;;;;;;;3.50;2.17;;;;;3.00;99079.00;;;;5031991;28;20033;-67
2023/10/16 03:53:52;;;;;;;2.65;1.90;;;;;3.00;99075.00;;;;5031298;28;20469;-65
2023/10/16 03:56:20;;;;;;;4.13;2.05;;;;;3.00;99079.00;;;;5031969;28;20076;-65
2023/10/16 03:58:47;;;;;;;3.15;1.85;;;;;3.00;99072.00;;;;5031586;28;20474;-65
2023/10/16 04:01:21;;;;;;;4.78;2.00;;;;;3.00;99077.00;;;;5031657;28;20038;-66
2023/10/16 04:03:50;;;;;;;2.17;1.90;;;;;2.90;99074.00;;;;5031372;28;20073;-65
2023/10/16 04:06:20;;;;;;;3.15;1.95;;;;;3.00;99082.00;;;;5032052;28;20125;-65
2023/10/16 04:08:52;;;;;;;2.50;1.85;;;;;3.00;99070.00;;;;5031863;28;20128;-65
2023/10/16 04:11:21;;;;;;;23.80;12.65;;;;;2.90;99062.00;;;;5031791;28;20029;-66
2023/10/16 04:13:48;;;;;;;8.82;5.13;;;;;2.90;99064.00;;;;5030918;28;20462;-65
2023/10/16 04:21:45;;;;;;;4.63;2.33;;;;;2.90;99060.00;;;;5031733;28;20490;-66
2023/10/16 04:27:38;;;;;;;2.58;1.95;;;;;2.70;99058.00;;;;5031393;28;20104;-65
2023/10/16 04:29:46;;;;;;;3.00;2.13;;;;;2.80;99060.00;;;;5027812;28;20054;-65
2023/10/16 04:35:03;;;;;;;3.65;2.33;;;;;2.70;99056.00;;;;5033086;28;20414;-65
2023/10/16 04:37:36;;;;;;;1.90;1.67;;;;;2.70;99053.00;;;;5035279;28;20116;-65
2023/10/16 04:53:24;;;;;;;6.43;2.65;;;;;2.70;99049.00;;;;5033515;28;20060;-64
2023/10/16 05:00:56;;;;;;;3.00;2.30;;;;;2.60;99048.00;;;;5034840;28;20096;-64
2023/10/16 05:03:25;;;;;;;5.85;3.08;;;;;2.50;99042.00;;;;5034549;28;20456;-66
2023/10/16 05:19:03;;;;;;;3.25;2.60;;;;;3.00;99044.00;;;;5034495;28;20053;-66
2023/10/16 06:14:20;;;;;;;7.15;6.22;;;;;2.80;99028.00;;;;5032981;28;20562;-66
2023/10/16 06:16:53;;;;;;;4.25;3.10;;;;;2.90;99020.00;;;;5033628;28;20463;-64
2023/10/16 06:19:22;;;;;;;5.90;2.22;;;;;2.90;99024.00;;;;5034203;28;20043;-64
2023/10/16 06:21:51;;;;;;;6.57;2.50;;;;;3.00;99029.00;;;;5033551;28;20041;-64
2023/10/16 06:24:25;;;;;;;8.93;6.38;;;;;3.10;99027.00;;;;5032985;28;20550;-65
2023/10/16 06:26:56;;;;;;;6.72;3.78;;;;;3.10;99039.00;;;;5033351;28;20045;-65
2023/10/16 06:29:34;;;;;;;11.15;2.92;;;;;3.10;99037.00;;;;5033223;28;20054;-65
2023/10/16 06:32:07;;;;;;;4.53;2.28;;;;;3.20;99031.00;;;;5034064;28;20045;-64
2023/10/16 06:34:35;;;;;;;15.60;11.20;;;;;3.20;99031.00;;;;5033890;28;20053;-65
2023/10/16 06:37:09;;;;;;;6.75;4.70;;;;;3.30;99031.00;;;;5032323;28;20493;-66
2023/10/16 06:39:36;;;;;;;8.00;4.60;;;;;3.40;99049.00;;;;5032601;28;20045;-65
2023/10/16 06:42:04;;;;;;;5.53;3.33;;;;;3.60;99033.00;;;;5033200;28;20065;-66
2023/10/16 06:44:36;;;;;;;8.15;2.90;;;;;3.80;99040.00;;;;5031393;28;20103;-65
2023/10/16 06:47:02;;;;;;;7.88;3.03;;;;;3.90;99033.00;;;;5032951;28;20053;-66
2023/10/16 06:49:37;;;;;;;7.88;3.47;;;;;4.00;99039.00;;;;5033109;28;20045;-66
2023/10/16 06:52:05;;;;;;;8.52;3.60;;;;;4.00;99041.00;;;;5031814;28;20042;-65
2023/10/16 06:54:37;;;;;;;8.13;3.50;;;;;4.20;99043.00;;;;5032282;28;20058;-64
2023/10/16 06:57:13;;;;;;;3.95;2.38;;;;;4.40;99039.00;;;;5031314;28;20056;-66
2023/10/16 06:59:41;;;;;;;4.57;2.83;;;;;4.50;99033.00;;;;5032695;28;20124;-65
2023/10/16 07:02:15;;;;;;;7.47;3.53;;;;;4.60;99040.00;;;;5032655;28;20076;-65
2023/10/16 07:04:44;;;;;;;10.32;3.65;;;;;4.70;99049.00;;;;5032105;28;20116;-66
2023/10/16 07:07:15;;;;;;;7.82;2.90;;;;;5.00;99062.00;;;;5032421;28;20116;-66
2023/10/16 07:09:48;;;;;;;9.48;3.33;;;;;5.00;99054.00;;;;5031549;28;20120;-66
2023/10/16 07:12:18;;;;;;;5.25;2.42;;;;;5.10;99058.00;;;;5032503;28;20042;-66
2023/10/16 07:14:55;;;;;;;8.05;2.92;;;;;5.20;99056.00;;;;5031997;28;20434;-65
2023/10/16 07:17:27;;;;;;;4.43;3.00;;;;;5.30;99068.00;;;;5032370;28;20057;-66
2023/10/16 07:20:00;;;;;;;7.82;2.88;;;;;5.40;99072.00;;;;5032345;28;20403;-66
2023/10/16 07:22:31;;;;;;;9.88;4.03;;;;;5.40;99070.00;;;;5032298;28;20042;-66
2023/10/16 07:27:50;;;;;;;7.15;4.05;;;;;5.70;99077.00;;;;5032277;28;20045;-66
2023/10/16 07:30:23;;;;;;;10.95;3.00;;;;;5.90;99083.00;;;;5032100;28;20059;-65
2023/10/16 07:32:50;;;;;;;4.93;3.00;;;;;5.90;99079.00;;;;5032194;28;20046;-64
2023/10/16 07:35:21;;;;;;;5.15;2.80;;;;;6.00;99080.00;;;;5030666;28;20284;-63
2023/10/16 07:37:54;;;;;;;7.13;2.78;;;;;6.10;99079.00;;;;5032032;28;20532;-64
2023/10/16 07:40:21;;;;;;;3.28;2.65;;;;;6.10;99086.00;;;;5032349;28;20048;-63
2023/10/16 07:42:48;;;;;;;4.95;2.88;;;;;6.30;99082.00;;;;5031021;28;20494;-64
2023/10/16 07:45:15;;;;;;;6.53;3.08;;;;;6.40;99085.00;;;;5031838;28;20079;-63
2023/10/16 07:47:46;;;;;;;11.10;5.70;;;;;6.50;99082.00;;;;5030819;28;20049;-63
2023/10/16 07:50:13;;;;;;;10.00;4.95;;;;;6.50;99083.00;;;;5032778;28;20514;-64
2023/10/16 07:52:42;;;;;;;15.80;5.88;;;;;6.70;99085.00;;;;5033077;28;20069;-64
2023/10/16 07:55:18;;;;;;;9.50;4.72;;;;;6.80;99084.00;;;;5031707;28;20103;-63
2023/10/16 07:57:51;;;;;;;11.82;4.40;;;;;6.80;99071.00;;;;5032260;28;20073;-63
2023/10/16 08:00:25;;;;;;;10.68;4.25;;;;;6.80;99071.00;;;;5033938;28;20084;-63
2023/10/16 08:03:04;;;;;;;7.70;4.28;;;;;7.10;99075.00;;;;5033794;28;20042;-63
2023/10/16 08:05:31;;;;;;;12.68;5.80;;;;;7.30;99070.00;;;;5033455;28;20042;-65
2023/10/16 08:08:00;;;;;;;9.68;4.38;;;;;7.30;99079.00;;;;5032392;28;20495;-66
2023/10/16 08:10:41;;;;;;;4.85;3.22;;;;;7.40;99081.00;;;;5033705;28;20058;-66
2023/10/16 08:13:11;;;;;;;5.13;3.72;;;;;7.30;99078.00;;;;5034962;28;20057;-66
2023/10/16 08:15:45;;;;;;;6.53;3.90;;;;;7.40;99082.00;;;;5035679;28;20045;-66
2023/10/16 08:18:13;;;;;;;11.05;4.88;;;;;7.60;99083.00;;;;5035613;28;20120;-66
2023/10/16 08:23:34;;;;;;;9.00;4.53;;;;;7.60;99079.00;;;;5036158;28;20063;-66
2023/10/16 08:26:14;;;;;;;10.13;4.55;;;;;7.50;99070.00;;;;5036901;28;20409;-66
2023/10/16 08:28:47;;;;;;;8.38;4.95;;;;;7.50;99075.00;;;;5019754;28;20045;-66
2023/10/16 08:31:25;;;;;;;14.73;6.70;;;;;7.70;99087.00;;;;5036469;28;20042;-65
2023/10/16 08:33:56;;;;;;;10.25;5.15;;;;;7.90;99077.00;;;;5035104;28;20060;-66
2023/10/16 08:36:23;;;;;;;12.10;5.82;;;;;7.90;99076.00;;;;5034177;28;20493;-67
2023/10/16 08:38:54;;;;;;;9.23;5.15;;;;;7.90;99070.00;;;;5035208;28;20046;-67
2023/10/16 08:41:31;;;;;;;7.85;5.07;;;;;8.00;99077.00;;;;5033975;28;20046;-67
2023/10/16 08:44:05;;;;;;;9.40;4.95;;;;;8.10;99078.00;;;;5033536;28;20072;-67
2023/10/16 08:46:44;;;;;;;10.55;5.35;;;;;8.10;99079.00;;;;5034019;28;20103;-67
2023/10/16 08:49:11;;;;;;;9.00;5.63;;;;;8.20;99070.00;;;;5034601;28;20049;-67
2023/10/16 08:51:38;;;;;;;10.85;6.28;;;;;8.40;99073.00;;;;5035237;28;20102;-68
2023/10/16 08:54:27;;;;;;;9.52;5.63;;;;;8.50;99072.00;;;;5033280;28;20503;-68
2023/10/16 08:56:54;;;;;;;9.80;6.05;;;;;8.80;99071.00;;;;5034789;28;20076;-68
2023/10/16 08:59:25;;;;;;;11.13;4.88;;;;;8.90;99077.00;;;;5017288;28;20052;-68
2023/10/16 09:01:54;;;;;;;9.38;5.20;;;;;9.00;99071.00;;;;5034853;28;20099;-68
2023/10/16 09:04:25;;;;;;;9.20;5.55;;;;;9.10;99080.00;;;;5033102;28;20041;-68
2023/10/16 09:06:51;;;;;;;9.00;5.90;;;;;9.10;99080.00;;;;5033556;28;20041;-68
2023/10/16 09:09:20;;;;;;;14.15;5.50;;;;;9.20;99076.00;;;;5034568;28;20061;-67
2023/10/16 09:11:47;;;;;;;6.57;4.18;;;;;9.20;99069.00;;;;5033428;28;20525;-67
2023/10/16 09:14:20;;;;;;;7.55;4.25;;;;;9.20;99066.00;;;;5034064;28;20134;-67
2023/10/16 09:16:48;;;;;;;6.45;3.67;;;;;9.30;99081.00;;;;5017206;28;20049;-67
2023/10/16 09:19:15;;;;;;;8.27;3.60;;;;;9.40;99071.00;;;;5033416;28;20569;-67
2023/10/16 09:21:45;;;;;;;9.07;3.60;;;;;9.60;99081.00;;;;5039781;28;20110;-66
2023/10/16 09:24:13;;;;;;;5.57;3.40;;;;;9.70;99074.00;;;;5043996;28;20045;-66
2023/10/16 09:26:46;;;;;;;7.85;3.30;;;;;9.80;99069.00;;;;5036043;28;20474;-68
2023/10/16 09:29:20;;;;;;;7.45;3.40;;;;;9.80;99067.00;;;;5033994;28;20049;-67
2023/10/16 09:31:48;;;;;;;9.13;3.50;;;;;9.90;99060.00;;;;5017797;28;20049;-66
2023/10/16 09:34:19;;;;;;;8.57;3.00;;;;;10.10;99061.00;;;;5017434;28;20418;-66
2023/10/16 09:37:15;;;;;;;7.53;3.17;;;;;10.10;99051.00;;;;5017000;28;20053;-66
2023/10/16 09:39:40;;;;;;;6.60;3.10;;;;;10.30;99048.00;;;;5033548;28;20052;-65
2023/10/16 09:42:12;;;;;;;3.97;2.38;;;;;10.40;99053.00;;;;5016604;28;20038;-67
2023/10/16 09:44:44;;;;;;;4.97;2.40;;;;;10.50;99063.00;;;;5032689;28;20053;-66
2023/10/16 09:47:27;;;;;;;5.15;2.53;;;;;10.60;99054.00;;;;5034219;28;20449;-66
2023/10/16 09:49:58;;;;;;;5.40;2.42;;;;;10.80;99050.00;;;;5034047;28;20092;-66
2023/10/16 09:52:25;;;;;;;3.85;2.10;;;;;11.00;99055.00;;;;5016653;28;20049;-66
2023/10/16 09:54:52;;;;;;;4.90;2.17;;;;;11.20;99060.00;;;;5016224;28;20049;-66
2023/10/16 09:57:23;;;;;;;2.70;1.60;;;;;11.40;99057.00;;;;5032873;28;20111;-65
2023/10/16 10:00:00;;;;;;;4.40;1.80;;;;;11.50;99057.00;;;;5017164;28;20364;-66
2023/10/16 10:02:39;;;;;;;2.95;1.85;;;;;11.50;99057.00;;;;5034813;28;20052;-65
2023/10/16 10:05:09;;;;;;;6.13;1.90;;;;;11.60;99056.00;;;;5032482;28;20104;-66
2023/10/16 10:07:47;;;;;;;1.88;1.45;;;;;11.50;99049.00;;;;5016307;28;20498;-65
2023/10/16 10:13:20;;;;;;;6.50;2.47;;;;;11.80;99050.00;;;;5031625;28;20144;-67
2023/10/16 10:15:52;;;;;;;10.77;2.55;;;;;11.70;99049.00;;;;5031997;28;20518;-66
2023/10/16 10:18:35;;;;;;;2.33;1.65;;;;;11.80;99042.00;;;;5032290;28;20518;-65
2023/10/16 10:21:11;;;;;;;4.82;1.70;;;;;11.90;99038.00;;;;5016104;28;20136;-66
2023/10/16 10:23:41;;;;;;;4.53;1.52;;;;;12.00;99031.00;;;;5033131;28;20033;-67
2023/10/16 10:26:08;;;;;;;3.55;1.35;;;;;12.10;99035.00;;;;5033418;28;20038;-68
2023/10/16 10:28:38;;;;;;;2.50;1.20;;;;;12.10;99031.00;;;;5033163;28;20140;-68
2023/10/16 10:31:05;;;;;;;4.40;1.10;;;;;12.10;99033.00;;;;5031938;28;20103;-68
2023/10/16 10:33:39;;;;;;;3.58;1.40;;;;;12.00;99035.00;;;;5032359;28;20117;-68
2023/10/16 10:36:27;;;;;;;2.90;1.45;;;;;12.10;99031.00;;;;5032237;28;20049;-67
2023/10/16 10:39:22;;;;;;;3.85;1.33;;;;;12.10;99027.00;;;;5031885;28;20124;-68
2023/10/16 10:41:54;;;;;;;2.13;1.20;;;;;12.10;99017.00;;;;5031831;28;20514;-68
2023/10/16 10:44:39;;;;;;;2.65;1.30;;;;;12.20;99024.00;;;;5014768;28;20518;-67
2023/10/16 10:47:38;;;;;;;4.10;1.42;;;;;12.30;99021.00;;;;5015546;28;20054;-67
2023/10/16 10:50:13;;;;;;;2.50;1.85;;;;;12.40;99015.00;;;;5023920;28;20053;-67
2023/10/16 10:52:41;;;;;;;3.80;1.50;;;;;12.40;99007.00;;;;5031841;28;20095;-67
2023/10/16 10:55:18;;;;;;;2.20;1.23;;;;;12.50;99006.00;;;;5032564;28;20124;-67
2023/10/16 10:57:49;;;;;;;3.40;1.48;;;;;12.70;99004.00;;;;5032885;28;20071;-67
2023/10/16 11:00:25;;;;;;;2.60;1.10;;;;;12.60;99002.00;;;;5033007;28;20045;-67
2023/10/16 11:05:33;;;;;;;2.38;1.10;;;;;12.60;98996.00;;;;5032277;28;20056;-68
2023/10/16 11:10:42;;;;;;;3.17;1.10;;;;;12.70;98991.00;;;;5032846;28;20494;-67
2023/10/16 11:13:10;;;;;;;3.03;1.25;;;;;12.70;98986.00;;;;5033182;28;20042;-67
2023/10/16 11:15:54;;;;;;;2.17;1.40;;;;;12.70;98977.00;;;;5032439;28;20499;-67
2023/10/16 11:18:26;;;;;;;5.28;1.08;;;;;12.70;98977.00;;;;5032728;28;20049;-68
2023/10/16 11:20:54;;;;;;;3.55;1.58;;;;;12.80;98974.00;;;;5031361;28;20132;-68
2023/10/16 11:23:31;;;;;;;1.23;1.02;;;;;12.90;98967.00;;;;5032489;28;20079;-69
2023/10/16 11:26:01;;;;;;;7.40;1.98;;;;;12.90;98965.00;;;;5035836;28;20042;-66
2023/10/16 11:28:36;;;;;;;4.75;1.33;;;;;12.90;98966.00;;;;5032908;28;20395;-67
2023/10/16 11:31:09;;;;;;;1.42;0.82;;;;;12.90;98960.00;;;;5033648;28;20046;-67
2023/10/16 11:33:47;;;;;;;1.35;0.80;;;;;12.90;98955.00;;;;5032701;28;20056;-66
2023/10/16 11:36:20;;;;;;;2.17;1.02;;;;;12.90;98947.00;;;;5033359;28;20495;-67
2023/10/16 11:38:47;;;;;;;4.35;1.42;;;;;13.00;98942.00;;;;5033663;28;20107;-68
2023/10/16 11:41:19;;;;;;;3.25;1.80;;;;;13.10;98938.00;;;;5033443;28;20045;-68
2023/10/16 11:43:53;;;;;;;3.97;1.23;;;;;13.10;98942.00;;;;5035563;28;20041;-67
2023/10/16 11:46:31;;;;;;;3.17;1.25;;;;;13.20;98939.00;;;;5048832;28;20050;-67
2023/10/16 11:49:17;;;;;;;1.85;1.27;;;;;13.20;98938.00;;;;5057849;28;20052;-67
2023/10/16 11:51:51;;;;;;;3.97;1.55;;;;;13.40;98937.00;;;;5055588;28;20103;-67
2023/10/16 11:54:20;;;;;;;1.00;0.80;;;;;13.50;98932.00;;;;5055640;28;20045;-67
2023/10/16 11:56:48;;;;;;;2.92;1.60;;;;;13.60;98932.00;;;;5056158;28;20046;-66
2023/10/16 11:59:15;;;;;;;4.00;1.42;;;;;13.70;98925.00;;;;5055154;28;20053;-68
2023/10/16 12:01:44;;;;;;;3.40;1.25;;;;;13.60;98925.00;;;;5054273;28;20391;-66
2023/10/16 12:04:28;;;;;;;3.13;1.08;;;;;13.70;98919.00;;;;5052674;28;20050;-67
2023/10/16 12:06:57;;;;;;;1.65;1.00;;;;;13.70;98921.00;;;;5041969;28;20068;-67
2023/10/16 12:09:26;;;;;;;1.55;1.05;;;;;13.60;98915.00;;;;5035907;28;20044;-68
2023/10/16 12:11:54;;;;;;;3.40;1.75;;;;;13.80;98915.00;;;;5036009;28;20046;-67
2023/10/16 12:14:22;;;;;;;2.33;1.10;;;;;14.00;98916.00;;;;5035481;28;20091;-67
2023/10/16 12:16:48;;;;;;;2.13;0.80;;;;;14.00;98908.00;;;;5035852;28;20099;-67
2023/10/16 12:19:17;;;;;;;1.58;0.93;;;;;14.00;98906.00;;;;5035643;28;20413;-70
2023/10/16 12:21:47;;;;;;;3.47;1.30;;;;;14.10;98904.00;;;;5035834;28;20107;-67
2023/10/16 12:24:16;;;;;;;2.75;1.40;;;;;14.10;98903.00;;;;5034995;28;20049;-69
2023/10/16 12:26:43;;;;;;;3.05;0.85;;;;;14.10;98891.00;;;;5034311;28;20494;-66
2023/10/16 12:29:11;;;;;;;1.75;1.00;;;;;14.10;98898.00;;;;5034333;28;20445;-68
2023/10/16 12:31:41;;;;;;;4.07;1.17;;;;;14.00;98893.00;;;;5034090;28;20502;-66
2023/10/16 12:34:16;;;;;;;1.55;0.73;;;;;14.00;98877.00;;;;5033580;28;20048;-67
2023/10/16 12:36:43;;;;;;;1.27;0.80;;;;;14.00;98886.00;;;;5035295;28;20152;-67
2023/10/16 12:39:24;;;;;;;1.85;0.98;;;;;14.00;98876.00;;;;5035238;28;20057;-66
2023/10/16 12:41:55;;;;;;;1.92;1.00;;;;;14.20;98871.00;;;;5036535;28;20045;-64
2023/10/16 12:44:25;;;;;;;2.63;1.00;;;;;14.20;98879.00;;;;5034843;28;20038;-65
2023/10/16 12:46:56;;;;;;;2.08;0.90;;;;;14.20;98878.00;;;;5034052;28;20402;-64
2023/10/16 12:49:23;;;;;;;1.90;0.93;;;;;14.20;98875.00;;;;5034010;28;20077;-65
2023/10/16 12:51:50;;;;;;;1.77;0.90;;;;;14.30;98870.00;;;;5033976;28;20119;-66
2023/10/16 12:54:19;;;;;;;1.92;0.95;;;;;14.30;98858.00;;;;5033097;28;20050;-65
2023/10/16 12:56:48;;;;;;;2.45;1.08;;;;;14.40;98862.00;;;;5034452;28;20451;-65
2023/10/16 12:59:14;;;;;;;2.03;0.85;;;;;14.40;98857.00;;;;5033855;28;20046;-65
2023/10/16 13:01:41;;;;;;;1.92;0.90;;;;;14.30;98857.00;;;;5034505;28;20410;-65
2023/10/16 13:04:14;;;;;;;2.38;0.95;;;;;14.30;98861.00;;;;5017781;28;20053;-64
2023/10/16 13:06:43;;;;;;;4.47;1.02;;;;;14.20;98848.00;;;;5034750;28;20045;-65
2023/10/16 13:09:16;;;;;;;2.28;0.88;;;;;14.10;98847.00;;;;5036295;28;20103;-65
2023/10/16 13:11:44;;;;;;;4.30;1.30;;;;;14.10;98841.00;;;;5035798;28;20482;-66
2023/10/16 13:14:14;;;;;;;5.82;1.67;;;;;14.20;98842.00;;;;5033195;28;20087;-64
2023/10/16 13:16:41;;;;;;;1.98;1.00;;;;;14.30;98838.00;;;;5034257;28;20050;-65
2023/10/16 13:19:11;;;;;;;3.22;1.10;;;;;14.30;98837.00;;;;5034923;28;20045;-65
2023/10/16 13:21:41;;;;;;;2.45;0.90;;;;;14.30;98831.00;;;;5034006;28;20050;-65
2023/10/16 13:24:10;;;;;;;2.72;1.10;;;;;14.40;98835.00;;;;5037395;28;20052;-65
2023/10/16 13:26:38;;;;;;;2.97;1.10;;;;;14.30;98841.00;;;;5038373;28;20041;-65
2023/10/16 13:29:07;;;;;;;3.85;1.30;;;;;14.20;98840.00;;;;5037394;28;20041;-65
2023/10/16 13:31:45;;;;;;;2.78;1.17;;;;;14.20;98839.00;;;;5034045;28;20060;-65
2023/10/16 13:34:16;;;;;;;3.50;1.30;;;;;14.30;98842.00;;;;5033470;28;20042;-64
2023/10/16 13:37:00;;;;;;;2.33;1.52;;;;;14.30;98844.00;;;;5034930;28;20091;-64
2023/10/16 13:39:38;;;;;;;3.60;1.42;;;;;14.30;98851.00;;;;5035100;28;20104;-64
2023/10/16 13:42:09;;;;;;;2.35;1.20;;;;;14.30;98848.00;;;;5033717;28;20033;-65
2023/10/16 13:44:36;;;;;;;5.20;1.50;;;;;14.20;98839.00;;;;5033954;28;20065;-64
2023/10/16 13:47:08;;;;;;;4.53;1.40;;;;;14.20;98840.00;;;;5034677;28;20045;-64
2023/10/16 13:49:37;;;;;;;2.88;1.20;;;;;14.10;98836.00;;;;5034374;28;20076;-64
2023/10/16 13:52:07;;;;;;;3.97;0.93;;;;;14.10;98826.00;;;;5034553;28;20096;-66
2023/10/16 13:54:38;;;;;;;4.38;1.25;;;;;14.30;98837.00;;;;5033887;28;20044;-65
2023/10/16 13:57:06;;;;;;;1.77;1.17;;;;;14.20;98831.00;;;;5033758;28;20052;-65
2023/10/16 13:59:34;;;;;;;3.45;1.20;;;;;14.10;98828.00;;;;5034095;28;20069;-65
2023/10/16 14:02:01;;;;;;;3.33;1.20;;;;;14.10;98826.00;;;;5033966;28;20081;-65
2023/10/16 14:04:33;;;;;;;2.38;1.30;;;;;14.10;98830.00;;;;5033324;28;20033;-66
2023/10/16 14:07:00;;;;;;;2.33;1.38;;;;;14.00;98826.00;;;;5032459;28;20049;-65
2023/10/16 14:09:32;;;;;;;2.72;1.60;;;;;14.00;98830.00;;;;5033674;28;20083;-65
2023/10/16 14:12:00;;;;;;;3.33;1.58;;;;;14.00;98827.00;;;;5033798;28;20553;-65
2023/10/16 14:14:28;;;;;;;4.22;1.60;;;;;14.00;98824.00;;;;5032804;28;20104;-65
2023/10/16 14:17:03;;;;;;;2.83;1.67;;;;;14.00;98825.00;;;;5033636;28;20494;-66
2023/10/16 14:19:32;;;;;;;4.97;1.42;;;;;13.90;98820.00;;;;5033737;28;20049;-65
2023/10/16 14:21:59;;;;;;;2.55;1.60;;;;;13.90;98815.00;;;;5034120;28;20045;-65
2023/10/16 14:24:27;;;;;;;2.75;1.30;;;;;13.70;98814.00;;;;5032014;28;20064;-65
2023/10/16 14:26:56;;;;;;;2.88;1.23;;;;;13.60;98820.00;;;;5032228;28;20085;-65
2023/10/16 14:29:26;;;;;;;2.35;1.42;;;;;13.60;98818.00;;;;5016290;28;20491;-65
2023/10/16 14:31:57;;;;;;;3.45;1.30;;;;;13.50;98822.00;;;;5033469;28;20041;-64
2023/10/16 14:34:25;;;;;;;2.00;1.58;;;;;13.60;98820.00;;;;5032767;28;20041;-64
2023/10/16 14:36:55;;;;;;;2.13;1.50;;;;;13.60;98818.00;;;;5033141;28;20080;-64
2023/10/16 14:39:28;;;;;;;3.78;2.00;;;;;13.50;98822.00;;;;5031859;28;20087;-66